Time;durP1;ratioP1;P1;durP2;ratioP2;P2;SDS_P1;SDS_P2;PMS_P1;PMS_P2;Temp;Humidity;BMP_temperature;BMP_pressure;BME280_temperature;BME280_humidity;BME280_pressure;Samples;Min_cycle;Max_cycle;Signal;HPM_P1;HPM_P2
2022/05/02 00:00:28;;;;;;;24;16.25;;;;;;;4.24;70.71875;95312.14;;;;
2022/05/02 00:01:28;;;;;;;21.35;15;;;;;;;4.08;70.89258;95310.71;;;;
2022/05/02 00:02:29;;;;;;;21.35;15;;;;;;;4.08;70.89258;95310.71;;;;
2022/05/02 00:03:30;;;;;;;21.35;15;;;;;;;4.08;70.89258;95310.71;;;;
2022/05/02 00:04:30;;;;;;;21.35;15;;;;;;;4.08;70.89258;95310.71;;;;
2022/05/02 00:05:31;;;;;;;21.35;15;;;;;;;4.08;70.89258;95310.71;;;;
2022/05/02 00:06:31;;;;;;;21.35;15;;;;;;;4.08;70.89258;95310.71;;;;
2022/05/02 00:07:32;;;;;;;21.35;15;;;;;;;4.08;70.89258;95310.71;;;;
2022/05/02 00:08:33;;;;;;;21.35;15;;;;;;;4.08;70.89258;95310.71;;;;
2022/05/02 00:09:33;;;;;;;21.35;15;;;;;;;4.08;70.89258;95310.71;;;;
2022/05/02 00:10:34;;;;;;;21.35;15;;;;;;;4.08;70.89258;95310.71;;;;
2022/05/02 00:11:34;;;;;;;21.35;15;;;;;;;4.08;70.89258;95310.71;;;;
2022/05/02 00:12:35;;;;;;;23.5;16.2;;;;;;;3.94;71.19824;95303.51;;;;
2022/05/02 00:13:35;;;;;;;23.5;16.2;;;;;;;3.94;71.19824;95303.51;;;;
2022/05/02 00:14:36;;;;;;;23.5;16.2;;;;;;;3.94;71.19824;95303.51;;;;
2022/05/02 00:15:37;;;;;;;23.5;16.2;;;;;;;3.94;71.19824;95303.51;;;;
2022/05/02 00:16:39;;;;;;;23.5;16.2;;;;;;;3.94;71.19824;95303.51;;;;
2022/05/02 00:18:12;;;;;;;23.5;16.2;;;;;;;3.94;71.19824;95303.51;;;;
2022/05/02 00:19:12;;;;;;;23.5;16.2;;;;;;;3.94;71.19824;95303.51;;;;
2022/05/02 00:20:13;;;;;;;23.5;16.2;;;;;;;3.94;71.19824;95303.51;;;;
2022/05/02 00:21:13;;;;;;;23.5;16.2;;;;;;;3.94;71.19824;95303.51;;;;
2022/05/02 00:22:13;;;;;;;23.5;16.2;;;;;;;3.94;71.19824;95303.51;;;;
2022/05/02 00:23:14;;;;;;;23.55;16.05;;;;;;;3.8;71.43848;95291.09;;;;
2022/05/02 00:24:14;;;;;;;23.55;16.05;;;;;;;3.8;71.43848;95291.09;;;;
2022/05/02 00:25:15;;;;;;;23.55;16.05;;;;;;;3.8;71.43848;95291.09;;;;
2022/05/02 00:26:16;;;;;;;23.55;16.05;;;;;;;3.8;71.43848;95291.09;;;;
2022/05/02 00:27:16;;;;;;;23.55;16.05;;;;;;;3.8;71.43848;95291.09;;;;
2022/05/02 00:28:17;;;;;;;23.55;16.05;;;;;;;3.8;71.43848;95291.09;;;;
2022/05/02 00:29:17;;;;;;;23.55;16.05;;;;;;;3.8;71.43848;95291.09;;;;
2022/05/02 00:30:18;;;;;;;23.55;16.05;;;;;;;3.8;71.43848;95291.09;;;;
2022/05/02 00:31:20;;;;;;;23.55;16.05;;;;;;;3.8;71.43848;95291.09;;;;
2022/05/02 00:32:20;;;;;;;23.55;16.05;;;;;;;3.8;71.43848;95291.09;;;;
2022/05/02 00:33:21;;;;;;;23.95;16.3;;;;;;;3.66;71.62598;95278.66;;;;
2022/05/02 00:34:21;;;;;;;23.95;16.3;;;;;;;3.66;71.62598;95278.66;;;;
2022/05/02 00:35:22;;;;;;;23.95;16.3;;;;;;;3.66;71.62598;95278.66;;;;
2022/05/02 00:36:23;;;;;;;23.95;16.3;;;;;;;3.66;71.62598;95278.66;;;;
2022/05/02 00:37:24;;;;;;;23.95;16.3;;;;;;;3.66;71.62598;95278.66;;;;
2022/05/02 00:38:25;;;;;;;23.95;16.3;;;;;;;3.66;71.62598;95278.66;;;;
2022/05/02 00:39:25;;;;;;;23.95;16.3;;;;;;;3.66;71.62598;95278.66;;;;
2022/05/02 00:40:26;;;;;;;23.95;16.3;;;;;;;3.66;71.62598;95278.66;;;;
2022/05/02 00:41:26;;;;;;;23.95;16.3;;;;;;;3.66;71.62598;95278.66;;;;
2022/05/02 00:42:28;;;;;;;23.95;16.3;;;;;;;3.66;71.62598;95278.66;;;;
2022/05/02 00:43:28;;;;;;;23.95;16.3;;;;;;;3.66;71.62598;95278.66;;;;
2022/05/02 00:44:29;;;;;;;22.55;15.75;;;;;;;3.56;71.83984;95278.69;;;;
2022/05/02 00:45:29;;;;;;;22.55;15.75;;;;;;;3.56;71.83984;95278.69;;;;
2022/05/02 00:46:35;;;;;;;22.55;15.75;;;;;;;3.56;71.83984;95278.69;;;;
2022/05/02 00:47:36;;;;;;;22.55;15.75;;;;;;;3.56;71.83984;95278.69;;;;
2022/05/02 00:48:37;;;;;;;22.55;15.75;;;;;;;3.56;71.83984;95278.69;;;;
2022/05/02 00:49:38;;;;;;;22.55;15.75;;;;;;;3.56;71.83984;95278.69;;;;
2022/05/02 00:50:39;;;;;;;22.55;15.75;;;;;;;3.56;71.83984;95278.69;;;;
2022/05/02 00:51:41;;;;;;;22.55;15.75;;;;;;;3.56;71.83984;95278.69;;;;
2022/05/02 00:52:41;;;;;;;22.55;15.75;;;;;;;3.56;71.83984;95278.69;;;;
2022/05/02 00:53:42;;;;;;;22.55;15.75;;;;;;;3.56;71.83984;95278.69;;;;
2022/05/02 00:54:44;;;;;;;23.15;15.45;;;;;;;3.56;71.92578;95269.23;;;;
2022/05/02 00:55:46;;;;;;;23.15;15.45;;;;;;;3.56;71.92578;95269.23;;;;
2022/05/02 00:56:46;;;;;;;23.15;15.45;;;;;;;3.56;71.92578;95269.23;;;;
2022/05/02 00:57:47;;;;;;;23.15;15.45;;;;;;;3.56;71.92578;95269.23;;;;
2022/05/02 00:58:48;;;;;;;23.15;15.45;;;;;;;3.56;71.92578;95269.23;;;;
2022/05/02 00:59:49;;;;;;;23.15;15.45;;;;;;;3.56;71.92578;95269.23;;;;
2022/05/02 01:00:50;;;;;;;23.15;15.45;;;;;;;3.56;71.92578;95269.23;;;;
2022/05/02 01:01:50;;;;;;;23.15;15.45;;;;;;;3.56;71.92578;95269.23;;;;
2022/05/02 01:02:50;;;;;;;23.15;15.45;;;;;;;3.56;71.92578;95269.23;;;;
2022/05/02 01:03:51;;;;;;;23.15;15.45;;;;;;;3.56;71.92578;95269.23;;;;
2022/05/02 01:04:52;;;;;;;23.15;15.45;;;;;;;3.56;71.92578;95269.23;;;;
2022/05/02 01:07:22;;;;;;;21.85;15;;;;;;;3.56;71.90332;95262.67;;;;
2022/05/02 01:08:23;;;;;;;21.85;15;;;;;;;3.56;71.90332;95262.67;;;;
2022/05/02 01:09:25;;;;;;;21.85;15;;;;;;;3.56;71.90332;95262.67;;;;
2022/05/02 01:10:26;;;;;;;21.85;15;;;;;;;3.56;71.90332;95262.67;;;;
2022/05/02 01:11:27;;;;;;;21.85;15;;;;;;;3.56;71.90332;95262.67;;;;
2022/05/02 01:12:27;;;;;;;21.85;15;;;;;;;3.56;71.90332;95262.67;;;;
2022/05/02 01:13:28;;;;;;;21.85;15;;;;;;;3.56;71.90332;95262.67;;;;
2022/05/02 01:14:36;;;;;;;21.85;15;;;;;;;3.56;71.90332;95262.67;;;;
2022/05/02 01:15:37;;;;;;;21.85;15;;;;;;;3.56;71.90332;95262.67;;;;
2022/05/02 01:16:38;;;;;;;18.5;13.1;;;;;;;3.49;71.94531;95247.53;;;;
2022/05/02 01:17:38;;;;;;;18.5;13.1;;;;;;;3.49;71.94531;95247.53;;;;
2022/05/02 01:18:39;;;;;;;18.5;13.1;;;;;;;3.49;71.94531;95247.53;;;;
2022/05/02 01:19:40;;;;;;;18.5;13.1;;;;;;;3.49;71.94531;95247.53;;;;
2022/05/02 01:20:41;;;;;;;18.5;13.1;;;;;;;3.49;71.94531;95247.53;;;;
2022/05/02 01:21:42;;;;;;;18.5;13.1;;;;;;;3.49;71.94531;95247.53;;;;
2022/05/02 01:22:44;;;;;;;18.5;13.1;;;;;;;3.49;71.94531;95247.53;;;;
2022/05/02 01:23:44;;;;;;;18.5;13.1;;;;;;;3.49;71.94531;95247.53;;;;
2022/05/02 01:24:47;;;;;;;18.5;13.1;;;;;;;3.49;71.94531;95247.53;;;;
2022/05/02 01:25:49;;;;;;;18.5;13.1;;;;;;;3.49;71.94531;95247.53;;;;
2022/05/02 01:26:49;;;;;;;22.1;15.25;;;;;;;3.4;72.08887;95242.41;;;;
2022/05/02 01:27:50;;;;;;;22.1;15.25;;;;;;;3.4;72.08887;95242.41;;;;
2022/05/02 01:28:50;;;;;;;22.1;15.25;;;;;;;3.4;72.08887;95242.41;;;;
2022/05/02 01:29:52;;;;;;;22.1;15.25;;;;;;;3.4;72.08887;95242.41;;;;
2022/05/02 01:30:53;;;;;;;22.1;15.25;;;;;;;3.4;72.08887;95242.41;;;;
2022/05/02 01:31:53;;;;;;;22.1;15.25;;;;;;;3.4;72.08887;95242.41;;;;
2022/05/02 01:32:54;;;;;;;22.1;15.25;;;;;;;3.4;72.08887;95242.41;;;;
2022/05/02 01:33:55;;;;;;;22.1;15.25;;;;;;;3.4;72.08887;95242.41;;;;
2022/05/02 01:34:56;;;;;;;22.1;15.25;;;;;;;3.4;72.08887;95242.41;;;;
2022/05/02 01:35:56;;;;;;;22.1;15.25;;;;;;;3.4;72.08887;95242.41;;;;
2022/05/02 01:36:57;;;;;;;22.1;15.25;;;;;;;3.4;72.08887;95242.41;;;;
2022/05/02 01:37:58;;;;;;;22.9;14.7;;;;;;;3.25;72.30371;95232.84;;;;
2022/05/02 01:38:58;;;;;;;22.9;14.7;;;;;;;3.25;72.30371;95232.84;;;;
2022/05/02 01:39:58;;;;;;;22.9;14.7;;;;;;;3.25;72.30371;95232.84;;;;
2022/05/02 01:40:59;;;;;;;22.9;14.7;;;;;;;3.25;72.30371;95232.84;;;;
2022/05/02 01:42:00;;;;;;;22.9;14.7;;;;;;;3.25;72.30371;95232.84;;;;
2022/05/02 01:43:00;;;;;;;22.9;14.7;;;;;;;3.25;72.30371;95232.84;;;;
2022/05/02 01:44:01;;;;;;;22.9;14.7;;;;;;;3.25;72.30371;95232.84;;;;
2022/05/02 01:45:01;;;;;;;22.9;14.7;;;;;;;3.25;72.30371;95232.84;;;;
2022/05/02 01:46:02;;;;;;;22.9;14.7;;;;;;;3.25;72.30371;95232.84;;;;
2022/05/02 01:47:05;;;;;;;22.9;14.7;;;;;;;3.25;72.30371;95232.84;;;;
2022/05/02 01:48:08;;;;;;;24.9;15.75;;;;;;;3.12;72.52539;95236.64;;;;
2022/05/02 01:49:08;;;;;;;24.9;15.75;;;;;;;3.12;72.52539;95236.64;;;;
2022/05/02 01:50:09;;;;;;;24.9;15.75;;;;;;;3.12;72.52539;95236.64;;;;
2022/05/02 01:51:09;;;;;;;24.9;15.75;;;;;;;3.12;72.52539;95236.64;;;;
2022/05/02 01:52:10;;;;;;;24.9;15.75;;;;;;;3.12;72.52539;95236.64;;;;
2022/05/02 01:53:11;;;;;;;24.9;15.75;;;;;;;3.12;72.52539;95236.64;;;;
2022/05/02 01:54:12;;;;;;;24.9;15.75;;;;;;;3.12;72.52539;95236.64;;;;
2022/05/02 01:55:12;;;;;;;24.9;15.75;;;;;;;3.12;72.52539;95236.64;;;;
2022/05/02 01:56:13;;;;;;;24.9;15.75;;;;;;;3.12;72.52539;95236.64;;;;
2022/05/02 01:57:13;;;;;;;24.9;15.75;;;;;;;3.12;72.52539;95236.64;;;;
2022/05/02 01:58:14;;;;;;;24.9;15.75;;;;;;;3.12;72.52539;95236.64;;;;
2022/05/02 01:59:15;;;;;;;24.3;15.1;;;;;;;3.03;72.65723;95224.45;;;;
2022/05/02 02:00:16;;;;;;;24.3;15.1;;;;;;;3.03;72.65723;95224.45;;;;
2022/05/02 02:01:17;;;;;;;24.3;15.1;;;;;;;3.03;72.65723;95224.45;;;;
2022/05/02 02:02:17;;;;;;;24.3;15.1;;;;;;;3.03;72.65723;95224.45;;;;
2022/05/02 02:03:18;;;;;;;24.3;15.1;;;;;;;3.03;72.65723;95224.45;;;;
2022/05/02 02:09:30;;;;;;;22.7;15.6;;;;;;;2.95;72.82227;95221.9;;;;
2022/05/02 02:10:31;;;;;;;22.7;15.6;;;;;;;2.95;72.82227;95221.9;;;;
2022/05/02 02:11:31;;;;;;;22.7;15.6;;;;;;;2.95;72.82227;95221.9;;;;
2022/05/02 02:12:32;;;;;;;22.7;15.6;;;;;;;2.95;72.82227;95221.9;;;;
2022/05/02 02:13:32;;;;;;;22.7;15.6;;;;;;;2.95;72.82227;95221.9;;;;
2022/05/02 02:14:34;;;;;;;22.7;15.6;;;;;;;2.95;72.82227;95221.9;;;;
2022/05/02 02:15:34;;;;;;;22.7;15.6;;;;;;;2.95;72.82227;95221.9;;;;
2022/05/02 02:16:35;;;;;;;22.7;15.6;;;;;;;2.95;72.82227;95221.9;;;;
2022/05/02 02:17:35;;;;;;;22.7;15.6;;;;;;;2.95;72.82227;95221.9;;;;
2022/05/02 02:18:36;;;;;;;22.7;15.6;;;;;;;2.95;72.82227;95221.9;;;;
2022/05/02 02:19:38;;;;;;;22.7;15.6;;;;;;;2.95;72.82227;95221.9;;;;
2022/05/02 02:20:38;;;;;;;24.35;15.45;;;;;;;2.88;73.00098;95218.34;;;;
2022/05/02 02:21:42;;;;;;;24.35;15.45;;;;;;;2.88;73.00098;95218.34;;;;
2022/05/02 02:22:42;;;;;;;24.35;15.45;;;;;;;2.88;73.00098;95218.34;;;;
2022/05/02 02:23:43;;;;;;;24.35;15.45;;;;;;;2.88;73.00098;95218.34;;;;
2022/05/02 02:24:44;;;;;;;24.35;15.45;;;;;;;2.88;73.00098;95218.34;;;;
2022/05/02 02:25:45;;;;;;;24.35;15.45;;;;;;;2.88;73.00098;95218.34;;;;
2022/05/02 02:26:46;;;;;;;24.35;15.45;;;;;;;2.88;73.00098;95218.34;;;;
2022/05/02 02:27:46;;;;;;;24.35;15.45;;;;;;;2.88;73.00098;95218.34;;;;
2022/05/02 02:28:47;;;;;;;24.35;15.45;;;;;;;2.88;73.00098;95218.34;;;;
2022/05/02 02:29:48;;;;;;;24.35;15.45;;;;;;;2.88;73.00098;95218.34;;;;
2022/05/02 02:30:48;;;;;;;25;16.1;;;;;;;2.92;73.01758;95213.37;;;;
2022/05/02 02:31:49;;;;;;;25;16.1;;;;;;;2.92;73.01758;95213.37;;;;
2022/05/02 02:32:49;;;;;;;25;16.1;;;;;;;2.92;73.01758;95213.37;;;;
2022/05/02 02:33:50;;;;;;;25;16.1;;;;;;;2.92;73.01758;95213.37;;;;
2022/05/02 02:34:50;;;;;;;25;16.1;;;;;;;2.92;73.01758;95213.37;;;;
2022/05/02 02:35:51;;;;;;;25;16.1;;;;;;;2.92;73.01758;95213.37;;;;
2022/05/02 02:36:51;;;;;;;25;16.1;;;;;;;2.92;73.01758;95213.37;;;;
2022/05/02 02:37:52;;;;;;;25;16.1;;;;;;;2.92;73.01758;95213.37;;;;
2022/05/02 02:38:52;;;;;;;25;16.1;;;;;;;2.92;73.01758;95213.37;;;;
2022/05/02 02:39:53;;;;;;;25;16.1;;;;;;;2.92;73.01758;95213.37;;;;
2022/05/02 02:40:53;;;;;;;25;16.1;;;;;;;2.92;73.01758;95213.37;;;;
2022/05/02 02:41:54;;;;;;;25;16.1;;;;;;;2.92;73.01758;95213.37;;;;
2022/05/02 02:42:54;;;;;;;25;16.1;;;;;;;2.92;73.01758;95213.37;;;;
2022/05/02 02:43:55;;;;;;;25;16.1;;;;;;;2.92;73.01758;95213.37;;;;
2022/05/02 02:44:55;;;;;;;25;16.1;;;;;;;2.92;73.01758;95213.37;;;;
2022/05/02 02:45:56;;;;;;;25;16.1;;;;;;;2.92;73.01758;95213.37;;;;
2022/05/02 02:46:56;;;;;;;25;16.1;;;;;;;2.92;73.01758;95213.37;;;;
2022/05/02 02:47:57;;;;;;;25;16.1;;;;;;;2.92;73.01758;95213.37;;;;
2022/05/02 02:48:57;;;;;;;25;16.1;;;;;;;2.92;73.01758;95213.37;;;;
2022/05/02 02:49:58;;;;;;;25;16.1;;;;;;;2.92;73.01758;95213.37;;;;
2022/05/02 02:50:58;;;;;;;25;16.1;;;;;;;2.92;73.01758;95213.37;;;;
2022/05/02 02:52:00;;;;;;;23.15;14.25;;;;;;;2.91;72.99316;95210.91;;;;
2022/05/02 02:53:00;;;;;;;23.15;14.25;;;;;;;2.91;72.99316;95210.91;;;;
2022/05/02 02:54:01;;;;;;;23.15;14.25;;;;;;;2.91;72.99316;95210.91;;;;
2022/05/02 02:55:02;;;;;;;23.15;14.25;;;;;;;2.91;72.99316;95210.91;;;;
2022/05/02 02:56:03;;;;;;;23.15;14.25;;;;;;;2.91;72.99316;95210.91;;;;
2022/05/02 02:57:04;;;;;;;23.15;14.25;;;;;;;2.91;72.99316;95210.91;;;;
2022/05/02 02:58:05;;;;;;;23.15;14.25;;;;;;;2.91;72.99316;95210.91;;;;
2022/05/02 02:59:06;;;;;;;23.15;14.25;;;;;;;2.91;72.99316;95210.91;;;;
2022/05/02 03:00:07;;;;;;;23.15;14.25;;;;;;;2.91;72.99316;95210.91;;;;
2022/05/02 03:01:08;;;;;;;23.15;14.25;;;;;;;2.91;72.99316;95210.91;;;;
2022/05/02 03:02:09;;;;;;;23.15;14.25;;;;;;;2.91;72.99316;95210.91;;;;
2022/05/02 03:03:10;;;;;;;30.25;16.15;;;;;;;2.86;73.1748;95212.8;;;;
2022/05/02 03:09:22;;;;;;;30.25;16.15;;;;;;;2.86;73.1748;95212.8;;;;
2022/05/02 03:10:23;;;;;;;30.25;16.15;;;;;;;2.86;73.1748;95212.8;;;;
2022/05/02 03:11:24;;;;;;;30.25;16.15;;;;;;;2.86;73.1748;95212.8;;;;
2022/05/02 03:12:24;;;;;;;30.25;16.15;;;;;;;2.86;73.1748;95212.8;;;;
2022/05/02 03:13:25;;;;;;;24.8;15.75;;;;;;;2.87;73.2168;95205.21;;;;
2022/05/02 03:14:26;;;;;;;24.8;15.75;;;;;;;2.87;73.2168;95205.21;;;;
2022/05/02 03:15:26;;;;;;;24.8;15.75;;;;;;;2.87;73.2168;95205.21;;;;
2022/05/02 03:16:27;;;;;;;24.8;15.75;;;;;;;2.87;73.2168;95205.21;;;;
2022/05/02 03:17:27;;;;;;;24.8;15.75;;;;;;;2.87;73.2168;95205.21;;;;
2022/05/02 03:18:28;;;;;;;24.8;15.75;;;;;;;2.87;73.2168;95205.21;;;;
2022/05/02 03:19:28;;;;;;;24.8;15.75;;;;;;;2.87;73.2168;95205.21;;;;
2022/05/02 03:20:29;;;;;;;24.8;15.75;;;;;;;2.87;73.2168;95205.21;;;;
2022/05/02 03:21:30;;;;;;;24.8;15.75;;;;;;;2.87;73.2168;95205.21;;;;
2022/05/02 03:22:30;;;;;;;24.8;15.75;;;;;;;2.87;73.2168;95205.21;;;;
2022/05/02 03:23:31;;;;;;;24.8;15.75;;;;;;;2.87;73.2168;95205.21;;;;
2022/05/02 03:24:32;;;;;;;24.1;14.95;;;;;;;2.83;73.28516;95213.68;;;;
2022/05/02 03:25:32;;;;;;;24.1;14.95;;;;;;;2.83;73.28516;95213.68;;;;
2022/05/02 03:26:33;;;;;;;24.1;14.95;;;;;;;2.83;73.28516;95213.68;;;;
2022/05/02 03:27:34;;;;;;;24.1;14.95;;;;;;;2.83;73.28516;95213.68;;;;
2022/05/02 03:28:34;;;;;;;24.1;14.95;;;;;;;2.83;73.28516;95213.68;;;;
2022/05/02 03:29:36;;;;;;;24.1;14.95;;;;;;;2.83;73.28516;95213.68;;;;
2022/05/02 03:30:36;;;;;;;24.1;14.95;;;;;;;2.83;73.28516;95213.68;;;;
2022/05/02 03:31:37;;;;;;;24.1;14.95;;;;;;;2.83;73.28516;95213.68;;;;
2022/05/02 03:32:37;;;;;;;24.1;14.95;;;;;;;2.83;73.28516;95213.68;;;;
2022/05/02 03:33:38;;;;;;;24.1;14.95;;;;;;;2.83;73.28516;95213.68;;;;
2022/05/02 03:34:38;;;;;;;27.45;16.05;;;;;;;2.8;73.38574;95208.24;;;;
2022/05/02 03:35:39;;;;;;;27.45;16.05;;;;;;;2.8;73.38574;95208.24;;;;
2022/05/02 03:36:39;;;;;;;27.45;16.05;;;;;;;2.8;73.38574;95208.24;;;;
2022/05/02 03:37:40;;;;;;;27.45;16.05;;;;;;;2.8;73.38574;95208.24;;;;
2022/05/02 03:38:40;;;;;;;27.45;16.05;;;;;;;2.8;73.38574;95208.24;;;;
2022/05/02 03:39:41;;;;;;;27.45;16.05;;;;;;;2.8;73.38574;95208.24;;;;
2022/05/02 03:40:42;;;;;;;27.45;16.05;;;;;;;2.8;73.38574;95208.24;;;;
2022/05/02 03:41:42;;;;;;;27.45;16.05;;;;;;;2.8;73.38574;95208.24;;;;
2022/05/02 03:42:42;;;;;;;27.45;16.05;;;;;;;2.8;73.38574;95208.24;;;;
2022/05/02 03:43:43;;;;;;;27.45;16.05;;;;;;;2.8;73.38574;95208.24;;;;
2022/05/02 03:44:43;;;;;;;27.45;16.05;;;;;;;2.8;73.38574;95208.24;;;;
2022/05/02 03:45:44;;;;;;;26;15.5;;;;;;;2.71;73.58008;95199.22;;;;
2022/05/02 03:46:44;;;;;;;26;15.5;;;;;;;2.71;73.58008;95199.22;;;;
2022/05/02 03:47:45;;;;;;;26;15.5;;;;;;;2.71;73.58008;95199.22;;;;
2022/05/02 03:48:46;;;;;;;26;15.5;;;;;;;2.71;73.58008;95199.22;;;;
2022/05/02 03:49:46;;;;;;;26;15.5;;;;;;;2.71;73.58008;95199.22;;;;
2022/05/02 03:50:46;;;;;;;26;15.5;;;;;;;2.71;73.58008;95199.22;;;;
2022/05/02 03:51:47;;;;;;;26;15.5;;;;;;;2.71;73.58008;95199.22;;;;
2022/05/02 03:52:47;;;;;;;26;15.5;;;;;;;2.71;73.58008;95199.22;;;;
2022/05/02 03:53:48;;;;;;;26;15.5;;;;;;;2.71;73.58008;95199.22;;;;
2022/05/02 03:54:48;;;;;;;26;15.5;;;;;;;2.71;73.58008;95199.22;;;;
2022/05/02 03:55:49;;;;;;;26;15.5;;;;;;;2.71;73.58008;95199.22;;;;
2022/05/02 03:56:49;;;;;;;26.45;16.6;;;;;;;2.65;73.83301;95194.14;;;;
2022/05/02 03:57:50;;;;;;;26.45;16.6;;;;;;;2.65;73.83301;95194.14;;;;
2022/05/02 03:58:51;;;;;;;26.45;16.6;;;;;;;2.65;73.83301;95194.14;;;;
2022/05/02 03:59:52;;;;;;;26.45;16.6;;;;;;;2.65;73.83301;95194.14;;;;
2022/05/02 04:00:52;;;;;;;26.45;16.6;;;;;;;2.65;73.83301;95194.14;;;;
2022/05/02 04:01:53;;;;;;;26.45;16.6;;;;;;;2.65;73.83301;95194.14;;;;
2022/05/02 04:02:53;;;;;;;26.45;16.6;;;;;;;2.65;73.83301;95194.14;;;;
2022/05/02 04:03:54;;;;;;;26.45;16.6;;;;;;;2.65;73.83301;95194.14;;;;
2022/05/02 04:04:54;;;;;;;26.45;16.6;;;;;;;2.65;73.83301;95194.14;;;;
2022/05/02 04:05:54;;;;;;;26.45;16.6;;;;;;;2.65;73.83301;95194.14;;;;
2022/05/02 04:06:56;;;;;;;25.45;15.3;;;;;;;2.65;74.01172;95195.97;;;;
2022/05/02 04:07:57;;;;;;;25.45;15.3;;;;;;;2.65;74.01172;95195.97;;;;
2022/05/02 04:08:57;;;;;;;25.45;15.3;;;;;;;2.65;74.01172;95195.97;;;;
2022/05/02 04:09:58;;;;;;;25.45;15.3;;;;;;;2.65;74.01172;95195.97;;;;
2022/05/02 04:10:58;;;;;;;25.45;15.3;;;;;;;2.65;74.01172;95195.97;;;;
2022/05/02 04:11:58;;;;;;;25.45;15.3;;;;;;;2.65;74.01172;95195.97;;;;
2022/05/02 04:12:59;;;;;;;25.45;15.3;;;;;;;2.65;74.01172;95195.97;;;;
2022/05/02 04:13:59;;;;;;;25.45;15.3;;;;;;;2.65;74.01172;95195.97;;;;
2022/05/02 04:15:00;;;;;;;25.45;15.3;;;;;;;2.65;74.01172;95195.97;;;;
2022/05/02 04:16:00;;;;;;;25.45;15.3;;;;;;;2.65;74.01172;95195.97;;;;
2022/05/02 04:17:01;;;;;;;25.45;15.3;;;;;;;2.65;74.01172;95195.97;;;;
2022/05/02 04:18:01;;;;;;;25.55;15.85;;;;;;;2.81;74.03906;95201.47;;;;
2022/05/02 04:19:04;;;;;;;25.55;15.85;;;;;;;2.81;74.03906;95201.47;;;;
2022/05/02 04:20:04;;;;;;;25.55;15.85;;;;;;;2.81;74.03906;95201.47;;;;
2022/05/02 04:21:08;;;;;;;25.55;15.85;;;;;;;2.81;74.03906;95201.47;;;;
2022/05/02 04:22:08;;;;;;;25.55;15.85;;;;;;;2.81;74.03906;95201.47;;;;
2022/05/02 04:23:09;;;;;;;25.55;15.85;;;;;;;2.81;74.03906;95201.47;;;;
2022/05/02 04:24:09;;;;;;;25.55;15.85;;;;;;;2.81;74.03906;95201.47;;;;
2022/05/02 04:25:10;;;;;;;25.55;15.85;;;;;;;2.81;74.03906;95201.47;;;;
2022/05/02 04:26:10;;;;;;;25.55;15.85;;;;;;;2.81;74.03906;95201.47;;;;
2022/05/02 04:27:10;;;;;;;25.55;15.85;;;;;;;2.81;74.03906;95201.47;;;;
2022/05/02 04:28:12;;;;;;;24.35;15.3;;;;;;;3.01;73.89648;95204.22;;;;
2022/05/02 04:29:12;;;;;;;24.35;15.3;;;;;;;3.01;73.89648;95204.22;;;;
2022/05/02 04:30:13;;;;;;;24.35;15.3;;;;;;;3.01;73.89648;95204.22;;;;
2022/05/02 04:31:14;;;;;;;24.35;15.3;;;;;;;3.01;73.89648;95204.22;;;;
2022/05/02 04:32:14;;;;;;;24.35;15.3;;;;;;;3.01;73.89648;95204.22;;;;
2022/05/02 04:33:15;;;;;;;24.35;15.3;;;;;;;3.01;73.89648;95204.22;;;;
2022/05/02 04:34:15;;;;;;;24.35;15.3;;;;;;;3.01;73.89648;95204.22;;;;
2022/05/02 04:35:16;;;;;;;24.35;15.3;;;;;;;3.01;73.89648;95204.22;;;;
2022/05/02 04:36:16;;;;;;;24.35;15.3;;;;;;;3.01;73.89648;95204.22;;;;
2022/05/02 04:37:17;;;;;;;24.35;15.3;;;;;;;3.01;73.89648;95204.22;;;;
2022/05/02 04:38:17;;;;;;;24.35;15.3;;;;;;;3.01;73.89648;95204.22;;;;
2022/05/02 04:39:18;;;;;;;24.35;15.3;;;;;;;3.01;73.89648;95204.22;;;;
2022/05/02 04:40:18;;;;;;;24.35;15.3;;;;;;;3.01;73.89648;95204.22;;;;
2022/05/02 04:41:19;;;;;;;24.35;15.3;;;;;;;3.01;73.89648;95204.22;;;;
2022/05/02 04:42:19;;;;;;;24.35;15.3;;;;;;;3.01;73.89648;95204.22;;;;
2022/05/02 04:43:21;;;;;;;24.35;15.3;;;;;;;3.01;73.89648;95204.22;;;;
2022/05/02 04:44:21;;;;;;;24.35;15.3;;;;;;;3.01;73.89648;95204.22;;;;
2022/05/02 04:45:22;;;;;;;24.35;15.3;;;;;;;3.01;73.89648;95204.22;;;;
2022/05/02 04:46:22;;;;;;;24.35;15.3;;;;;;;3.01;73.89648;95204.22;;;;
2022/05/02 04:47:23;;;;;;;24.35;15.3;;;;;;;3.01;73.89648;95204.22;;;;
2022/05/02 04:48:24;;;;;;;24.35;15.3;;;;;;;3.01;73.89648;95204.22;;;;
2022/05/02 04:49:24;;;;;;;22.7;14.5;;;;;;;3.67;73.63965;95205.55;;;;
2022/05/02 04:50:25;;;;;;;22.7;14.5;;;;;;;3.67;73.63965;95205.55;;;;
2022/05/02 04:51:25;;;;;;;22.7;14.5;;;;;;;3.67;73.63965;95205.55;;;;
2022/05/02 04:52:25;;;;;;;22.7;14.5;;;;;;;3.67;73.63965;95205.55;;;;
2022/05/02 04:53:26;;;;;;;22.7;14.5;;;;;;;3.67;73.63965;95205.55;;;;
2022/05/02 04:54:27;;;;;;;22.7;14.5;;;;;;;3.67;73.63965;95205.55;;;;
2022/05/02 04:55:27;;;;;;;22.7;14.5;;;;;;;3.67;73.63965;95205.55;;;;
2022/05/02 04:56:27;;;;;;;22.7;14.5;;;;;;;3.67;73.63965;95205.55;;;;
2022/05/02 04:57:29;;;;;;;22.7;14.5;;;;;;;3.67;73.63965;95205.55;;;;
2022/05/02 04:58:30;;;;;;;22.7;14.5;;;;;;;3.67;73.63965;95205.55;;;;
2022/05/02 04:59:30;;;;;;;22.7;14.5;;;;;;;3.67;73.63965;95205.55;;;;
2022/05/02 05:00:31;;;;;;;22.7;14.5;;;;;;;3.67;73.63965;95205.55;;;;
2022/05/02 05:01:31;;;;;;;22.7;14.5;;;;;;;3.67;73.63965;95205.55;;;;
2022/05/02 05:02:33;;;;;;;22.7;14.5;;;;;;;3.67;73.63965;95205.55;;;;
2022/05/02 05:03:34;;;;;;;22.7;14.5;;;;;;;3.67;73.63965;95205.55;;;;
2022/05/02 05:04:35;;;;;;;22.7;14.5;;;;;;;3.67;73.63965;95205.55;;;;
2022/05/02 05:05:36;;;;;;;22.7;14.5;;;;;;;3.67;73.63965;95205.55;;;;
2022/05/02 05:06:36;;;;;;;22.7;14.5;;;;;;;3.67;73.63965;95205.55;;;;
2022/05/02 05:07:37;;;;;;;22.7;14.5;;;;;;;3.67;73.63965;95205.55;;;;
2022/05/02 05:08:38;;;;;;;22.7;14.5;;;;;;;3.67;73.63965;95205.55;;;;
2022/05/02 05:09:39;;;;;;;22.7;14.5;;;;;;;3.67;73.63965;95205.55;;;;
2022/05/02 05:10:39;;;;;;;0;0;;;;;;;0;0;0;;;;
2022/05/02 05:11:47;;;;;;;0;0;;;;;;;0;0;0;;;;
2022/05/02 05:12:55;;;;;;;0;0;;;;;;;0;0;0;;;;
2022/05/02 05:19:30;;;;;;;0;0;;;;;;;0;0;0;;;;
2022/05/02 05:20:46;;;;;;;0;0;;;;;;;0;0;0;;;;
2022/05/02 05:21:58;;;;;;;0;0;;;;;;;0;0;0;;;;
2022/05/02 05:23:08;;;;;;;0;0;;;;;;;0;0;0;;;;
2022/05/02 05:24:28;;;;;;;0;0;;;;;;;0;0;0;;;;
2022/05/02 05:25:49;;;;;;;0;0;;;;;;;0;0;0;;;;
2022/05/02 05:27:06;;;;;;;0;0;;;;;;;0;0;0;;;;
2022/05/02 05:28:19;;;;;;;0;0;;;;;;;0;0;0;;;;
2022/05/02 05:29:45;;;;;;;0;0;;;;;;;0;0;0;;;;
2022/05/02 05:30:52;;;;;;;0;0;;;;;;;0;0;0;;;;
2022/05/02 05:32:13;;;;;;;0;0;;;;;;;0;0;0;;;;
2022/05/02 05:33:26;;;;;;;0;0;;;;;;;0;0;0;;;;
2022/05/02 05:34:37;;;;;;;0;0;;;;;;;0;0;0;;;;
2022/05/02 05:35:45;;;;;;;0;0;;;;;;;0;0;0;;;;
2022/05/02 05:37:02;;;;;;;0;0;;;;;;;0;0;0;;;;
2022/05/02 05:38:35;;;;;;;0;0;;;;;;;0;0;0;;;;
2022/05/02 05:39:44;;;;;;;0;0;;;;;;;0;0;0;;;;
2022/05/02 05:40:55;;;;;;;0;0;;;;;;;0;0;0;;;;
2022/05/02 05:42:03;;;;;;;0;0;;;;;;;0;0;0;;;;
2022/05/02 05:43:12;;;;;;;0;0;;;;;;;0;0;0;;;;
2022/05/02 05:44:26;;;;;;;0;0;;;;;;;0;0;0;;;;
2022/05/02 05:45:43;;;;;;;0;0;;;;;;;0;0;0;;;;
2022/05/02 05:46:57;;;;;;;0;0;;;;;;;0;0;0;;;;
2022/05/02 05:48:12;;;;;;;0;0;;;;;;;0;0;0;;;;
2022/05/02 05:49:23;;;;;;;0;0;;;;;;;0;0;0;;;;
2022/05/02 05:50:32;;;;;;;0;0;;;;;;;0;0;0;;;;
2022/05/02 05:51:37;;;;;;;0;0;;;;;;;0;0;0;;;;
2022/05/02 05:52:47;;;;;;;0;0;;;;;;;0;0;0;;;;
2022/05/02 05:54:03;;;;;;;0;0;;;;;;;0;0;0;;;;
2022/05/02 05:55:18;;;;;;;0;0;;;;;;;0;0;0;;;;
2022/05/02 05:56:27;;;;;;;0;0;;;;;;;0;0;0;;;;
2022/05/02 05:57:39;;;;;;;0;0;;;;;;;0;0;0;;;;
2022/05/02 05:58:49;;;;;;;0;0;;;;;;;0;0;0;;;;
2022/05/02 06:00:04;;;;;;;0;0;;;;;;;0;0;0;;;;
2022/05/02 06:01:08;;;;;;;17.3;13.25;;;;;;;7.99;70.52637;95175.61;;;;
2022/05/02 06:02:11;;;;;;;17.3;13.25;;;;;;;7.99;70.52637;95175.61;;;;
2022/05/02 06:03:21;;;;;;;17.3;13.25;;;;;;;7.99;70.52637;95175.61;;;;
2022/05/02 06:04:33;;;;;;;17.3;13.25;;;;;;;7.99;70.52637;95175.61;;;;
2022/05/02 06:05:34;;;;;;;17.3;13.25;;;;;;;7.99;70.52637;95175.61;;;;
2022/05/02 06:06:38;;;;;;;17.3;13.25;;;;;;;7.99;70.52637;95175.61;;;;
2022/05/02 06:07:39;;;;;;;17.3;13.25;;;;;;;7.99;70.52637;95175.61;;;;
2022/05/02 06:08:41;;;;;;;17.3;13.25;;;;;;;7.99;70.52637;95175.61;;;;
2022/05/02 06:09:44;;;;;;;17.3;13.25;;;;;;;7.99;70.52637;95175.61;;;;
2022/05/02 06:10:48;;;;;;;17.3;13.25;;;;;;;7.99;70.52637;95175.61;;;;
2022/05/02 06:11:50;;;;;;;15.25;13.55;;;;;;;9.17;70.06738;95170.95;;;;
2022/05/02 06:12:52;;;;;;;15.25;13.55;;;;;;;9.17;70.06738;95170.95;;;;
2022/05/02 06:13:56;;;;;;;15.25;13.55;;;;;;;9.17;70.06738;95170.95;;;;
2022/05/02 06:20:16;;;;;;;15.25;13.55;;;;;;;9.17;70.06738;95170.95;;;;
2022/05/02 06:21:17;;;;;;;15.25;13.55;;;;;;;9.17;70.06738;95170.95;;;;
2022/05/02 06:22:20;;;;;;;0;0;;;;;;;0;0;0;;;;
2022/05/02 06:23:21;;;;;;;0;0;;;;;;;0;0;0;;;;
2022/05/02 06:24:24;;;;;;;0;0;;;;;;;0;0;0;;;;
2022/05/02 06:25:25;;;;;;;0;0;;;;;;;0;0;0;;;;
2022/05/02 06:26:29;;;;;;;0;0;;;;;;;0;0;0;;;;
2022/05/02 06:27:29;;;;;;;0;0;;;;;;;0;0;0;;;;
2022/05/02 06:28:32;;;;;;;0;0;;;;;;;0;0;0;;;;
2022/05/02 06:29:39;;;;;;;0;0;;;;;;;0;0;0;;;;
2022/05/02 06:30:41;;;;;;;0;0;;;;;;;0;0;0;;;;
2022/05/02 06:31:44;;;;;;;0;0;;;;;;;0;0;0;;;;
2022/05/02 06:32:49;;;;;;;0;0;;;;;;;0;0;0;;;;
2022/05/02 06:33:51;;;;;;;0;0;;;;;;;0;0;0;;;;
2022/05/02 06:34:52;;;;;;;0;0;;;;;;;0;0;0;;;;
2022/05/02 06:35:53;;;;;;;0;0;;;;;;;0;0;0;;;;